Melissa RD121's Hourly Summary for Monday, May 14, 2018
Hour Temp
(f)
RH
(%)
Solar Rad.
(MJ/m2)
Rainfall
(in)
Wind
(mph)
5/14/2018 12:00 AM 75 73 0 0 1.43
5/14/2018 1:00 AM 74 75 0 0 2.48
5/14/2018 2:00 AM 73 78 0 0 1.92
5/14/2018 3:00 AM 72 81 0 0 1.5
5/14/2018 4:00 AM 72 85 0 0 3.26
5/14/2018 5:00 AM 71 87 0 0 2.25
5/14/2018 6:00 AM 71 88 0.03 0 4.1
5/14/2018 7:00 AM 72 84 0.41 0 5.97
5/14/2018 8:00 AM 73 81 0.82 0 8.07
5/14/2018 9:00 AM 75 74 1.32 0 9.02
5/14/2018 10:00 AM 77 68 1.68 0 9.27
5/14/2018 11:00 AM 80 62 2.59 0 9.19
5/14/2018 12:00 PM 82 58 2.41 0 9.01
5/14/2018 1:00 PM 83 55 3.05 0 7.32
5/14/2018 2:00 PM 85 53 2.7 0 7.01
5/14/2018 3:00 PM 85 52 2.06 0 6.14
5/14/2018 4:00 PM 84 52 1.6 0 6.16
5/14/2018 5:00 PM 85 50 1.48 0 6.15
5/14/2018 6:00 PM 84 51 0.87 0 5.95
5/14/2018 7:00 PM 82 55 0.17 0 4.7
5/14/2018 8:00 PM 79 65 0 0 2.49
5/14/2018 9:00 PM 77 70 0 0 1.33
5/14/2018 10:00 PM 76 74 0 0 3.35
5/14/2018 11:00 PM 76 74 0 0 3.93
Data Summary 77 68 21.19 0.00 5.08